createdAt,value
2022-12-16T00:01:50.889Z,0.20
2022-12-16T00:04:20.192Z,0.20
2022-12-16T00:06:48.990Z,0.10
2022-12-16T00:09:17.125Z,0.10
2022-12-16T00:11:46.489Z,0.20
2022-12-16T00:14:14.498Z,0.20
2022-12-16T00:16:42.549Z,0.10
2022-12-16T00:19:10.848Z,0.10
2022-12-16T00:21:38.776Z,0.20
2022-12-16T00:24:06.906Z,0.20
2022-12-16T00:26:34.878Z,0.10
2022-12-16T00:29:05.446Z,0.20
2022-12-16T00:31:34.342Z,0.20
2022-12-16T00:34:02.354Z,0.20
2022-12-16T00:36:30.305Z,0.20
2022-12-16T00:38:58.333Z,0.20
2022-12-16T00:41:26.355Z,0.30
2022-12-16T00:43:54.693Z,0.20
2022-12-16T00:46:24.165Z,0.20
2022-12-16T00:48:52.237Z,0.20
2022-12-16T00:51:20.230Z,0.20
2022-12-16T00:53:48.284Z,0.20
2022-12-16T00:56:16.477Z,0.20
2022-12-16T00:58:44.821Z,0.10
2022-12-16T01:01:13.580Z,0.10
2022-12-16T01:03:43.176Z,0.00
2022-12-16T01:06:12.932Z,0.00
2022-12-16T01:08:48.893Z,0.00
2022-12-16T01:11:18.164Z,-0.10
2022-12-16T01:13:46.387Z,-0.10
2022-12-16T01:16:15.404Z,-0.10
2022-12-16T01:18:44.864Z,0.00
2022-12-16T01:21:39.519Z,0.00
2022-12-16T01:24:08.068Z,-0.10
2022-12-16T01:26:36.771Z,-0.10
2022-12-16T01:29:04.772Z,-0.20
2022-12-16T01:31:33.006Z,-0.20
2022-12-16T01:34:03.098Z,-0.20
2022-12-16T01:36:31.108Z,-0.20
2022-12-16T01:38:59.076Z,-0.20
2022-12-16T01:41:27.162Z,-0.10
2022-12-16T01:44:14.435Z,-0.20
2022-12-16T01:46:44.047Z,-0.10
2022-12-16T01:49:23.167Z,-0.10
2022-12-16T01:51:52.570Z,-0.20
2022-12-16T01:54:28.767Z,-0.20
2022-12-16T01:57:00.589Z,-0.20
2022-12-16T01:59:31.559Z,-0.20
2022-12-16T02:02:01.119Z,-0.20
2022-12-16T02:04:30.854Z,-0.20
2022-12-16T02:07:00.381Z,-0.20
2022-12-16T02:09:28.545Z,-0.20
2022-12-16T02:12:20.563Z,-0.30
2022-12-16T02:15:09.015Z,-0.30
2022-12-16T02:17:42.702Z,-0.30
2022-12-16T02:20:39.414Z,-0.30
2022-12-16T02:23:35.982Z,-0.30
2022-12-16T02:26:22.142Z,-0.20
2022-12-16T02:29:14.554Z,-0.20
2022-12-16T02:31:53.905Z,-0.30
2022-12-16T02:34:29.582Z,-0.30
2022-12-16T02:37:11.791Z,-0.30
2022-12-16T02:39:43.904Z,-0.40
2022-12-16T02:42:17.618Z,-0.50
2022-12-16T02:44:54.446Z,-0.50
2022-12-16T02:47:24.818Z,-0.60
2022-12-16T02:49:55.098Z,-0.50
2022-12-16T02:52:26.310Z,-0.60
2022-12-16T02:54:57.862Z,-0.60
2022-12-16T02:57:47.534Z,-0.70
2022-12-16T03:00:18.971Z,-0.70
2022-12-16T03:02:55.415Z,-0.80
2022-12-16T03:05:29.085Z,-0.80
2022-12-16T03:08:00.394Z,-0.80
2022-12-16T03:10:32.671Z,-0.80
2022-12-16T03:13:02.952Z,-0.80
2022-12-16T03:15:33.846Z,-0.70
2022-12-16T03:18:06.410Z,-0.80
2022-12-16T03:20:38.389Z,-0.80
2022-12-16T03:23:21.113Z,-0.90
2022-12-16T03:25:51.841Z,-1.00
2022-12-16T03:28:30.186Z,-1.10
2022-12-16T03:31:05.186Z,-1.00
2022-12-16T03:33:40.414Z,-1.00
2022-12-16T03:36:14.176Z,-1.00
2022-12-16T03:38:44.945Z,-1.00
2022-12-16T03:41:14.479Z,-1.00
2022-12-16T03:43:42.690Z,-1.00
2022-12-16T03:46:11.571Z,-1.20
2022-12-16T03:48:47.890Z,-1.10
2022-12-16T03:51:15.946Z,-1.10
2022-12-16T03:53:44.163Z,-1.20
2022-12-16T03:56:12.529Z,-1.20
2022-12-16T03:58:41.092Z,-1.30
2022-12-16T04:01:10.993Z,-1.20
2022-12-16T04:03:40.444Z,-1.30
2022-12-16T04:06:09.006Z,-1.30
2022-12-16T04:08:37.079Z,-1.30
2022-12-16T04:11:22.701Z,-1.30
2022-12-16T04:14:08.255Z,-1.30
2022-12-16T04:16:54.156Z,-1.20
2022-12-16T04:19:45.356Z,-1.30
2022-12-16T04:22:34.155Z,-1.30
2022-12-16T04:25:07.438Z,-1.30
2022-12-16T04:27:36.943Z,-1.30
2022-12-16T04:30:20.842Z,-1.30
2022-12-16T04:33:10.780Z,-1.30
2022-12-16T04:35:57.580Z,-1.30
2022-12-16T04:38:43.391Z,-1.30
2022-12-16T04:41:29.054Z,-1.30
2022-12-16T04:44:17.864Z,-1.30
2022-12-16T04:47:03.727Z,-1.30
2022-12-16T04:49:49.745Z,-1.30
2022-12-16T04:52:38.326Z,-1.30
2022-12-16T04:55:25.490Z,-1.40
2022-12-16T04:58:11.419Z,-1.40
2022-12-16T05:00:57.197Z,-1.40
2022-12-16T05:03:39.432Z,-1.50
2022-12-16T05:06:25.572Z,-1.50
2022-12-16T05:09:12.192Z,-1.50
2022-12-16T05:12:08.957Z,-1.50
2022-12-16T05:14:54.399Z,-1.50
2022-12-16T05:17:40.317Z,-1.60
2022-12-16T05:20:26.523Z,-1.50
2022-12-16T05:23:15.342Z,-1.50
2022-12-16T05:26:02.675Z,-1.40
2022-12-16T05:28:49.724Z,-1.40
2022-12-16T05:31:35.293Z,-1.40
2022-12-16T05:34:20.737Z,-1.40
2022-12-16T05:37:06.257Z,-1.40
2022-12-16T05:39:52.070Z,-1.40
2022-12-16T05:42:38.751Z,-1.50
2022-12-16T05:45:24.279Z,-1.50
2022-12-16T05:48:09.793Z,-1.60
2022-12-16T05:51:00.667Z,-1.50
2022-12-16T05:53:46.310Z,-1.50
2022-12-16T05:56:31.882Z,-1.50
2022-12-16T05:59:19.318Z,-1.50
2022-12-16T06:02:05.480Z,-1.50
2022-12-16T06:04:51.159Z,-1.60
2022-12-16T06:07:36.667Z,-1.50
2022-12-16T06:10:22.466Z,-1.60
2022-12-16T06:13:08.323Z,-1.60
2022-12-16T06:15:54.996Z,-1.60
2022-12-16T06:18:40.215Z,-1.50
2022-12-16T06:21:26.031Z,-1.50
2022-12-16T06:24:11.855Z,-1.60
2022-12-16T06:26:57.557Z,-1.60
2022-12-16T06:29:57.575Z,-1.60
2022-12-16T06:32:44.396Z,-1.60
2022-12-16T06:35:29.250Z,-1.50
2022-12-16T06:38:14.738Z,-1.50
2022-12-16T06:41:00.105Z,-1.60
2022-12-16T06:43:45.748Z,-1.60
2022-12-16T06:46:34.640Z,-1.60
2022-12-16T06:49:21.369Z,-1.60
2022-12-16T06:52:06.799Z,-1.60
2022-12-16T06:54:53.346Z,-1.50
2022-12-16T06:57:39.414Z,-1.60
2022-12-16T07:00:26.160Z,-1.50
2022-12-16T07:03:17.484Z,-1.60
2022-12-16T07:06:04.290Z,-1.50
2022-12-16T07:08:52.096Z,-1.60
2022-12-16T07:11:37.597Z,-1.60
2022-12-16T07:14:23.387Z,-1.60
2022-12-16T07:17:12.403Z,-1.60
2022-12-16T07:20:02.623Z,-1.60
2022-12-16T07:22:58.522Z,-1.50
2022-12-16T07:25:48.446Z,-1.50
2022-12-16T07:28:34.050Z,-1.50
2022-12-16T07:31:20.179Z,-1.60
2022-12-16T07:34:20.267Z,-1.60
2022-12-16T07:37:05.897Z,-1.60
2022-12-16T07:39:55.461Z,-1.60
2022-12-16T07:42:42.823Z,-1.60
2022-12-16T07:45:29.333Z,-1.60
2022-12-16T07:48:17.606Z,-1.60
2022-12-16T07:51:03.175Z,-1.60
2022-12-16T07:53:49.668Z,-1.60
2022-12-16T07:56:36.703Z,-1.50
2022-12-16T07:59:22.670Z,-1.50
2022-12-16T08:02:08.401Z,-1.50
2022-12-16T08:04:56.235Z,-1.40
2022-12-16T08:07:41.768Z,-1.50
2022-12-16T08:10:27.757Z,-1.40
2022-12-16T08:13:25.328Z,-1.40
2022-12-16T08:16:11.671Z,-1.50
2022-12-16T08:18:56.909Z,-1.40
2022-12-16T08:21:42.475Z,-1.30
2022-12-16T08:24:28.060Z,-1.30
2022-12-16T08:27:13.853Z,-1.10
2022-12-16T08:30:00.866Z,-1.10
2022-12-16T08:32:46.644Z,-0.90
2022-12-16T08:35:32.516Z,-0.90
2022-12-16T08:38:18.645Z,-0.90
2022-12-16T08:41:04.682Z,-0.90
2022-12-16T08:43:51.126Z,-0.70
2022-12-16T08:46:41.145Z,-0.80
2022-12-16T08:49:27.530Z,-0.60
2022-12-16T08:52:13.074Z,-0.50
2022-12-16T08:54:58.662Z,-0.50
2022-12-16T08:57:44.070Z,-0.50
2022-12-16T09:00:31.372Z,-0.50
2022-12-16T09:03:18.818Z,-0.60
2022-12-16T09:06:03.525Z,-0.50
2022-12-16T09:08:49.464Z,-0.40
2022-12-16T09:11:35.434Z,-0.50
2022-12-16T09:14:24.600Z,-0.50
2022-12-16T09:17:10.105Z,-0.40
2022-12-16T09:19:57.293Z,-0.30
2022-12-16T09:22:44.154Z,-0.30
2022-12-16T09:25:30.540Z,-0.10
2022-12-16T09:28:15.989Z,-0.20
2022-12-16T09:31:01.592Z,-0.10
2022-12-16T09:33:47.354Z,-0.30
2022-12-16T09:36:34.700Z,-0.40
2022-12-16T09:39:20.281Z,-0.30
2022-12-16T09:42:19.991Z,-0.50
2022-12-16T09:45:16.023Z,-0.50
2022-12-16T09:48:14.053Z,-0.60
2022-12-16T09:51:02.490Z,-0.60
2022-12-16T09:53:55.045Z,-0.60
2022-12-16T09:56:46.118Z,-0.50
2022-12-16T09:59:34.044Z,-0.70
2022-12-16T10:02:34.774Z,-0.60
2022-12-16T10:05:20.497Z,-0.70
2022-12-16T10:08:19.090Z,-0.70
2022-12-16T10:11:13.624Z,-0.90
2022-12-16T10:14:15.932Z,-0.80
2022-12-16T10:17:10.832Z,-0.80
2022-12-16T10:20:09.423Z,-0.80
2022-12-16T10:23:01.733Z,-0.90
2022-12-16T10:25:53.603Z,-0.90
2022-12-16T10:28:57.203Z,-0.80
2022-12-16T10:31:44.915Z,-0.80
2022-12-16T10:34:34.003Z,-0.90
2022-12-16T10:37:21.288Z,-0.90
2022-12-16T10:40:10.913Z,-0.90
2022-12-16T10:43:03.750Z,-1.00
2022-12-16T10:45:56.194Z,-0.90
2022-12-16T10:48:51.431Z,-1.00
2022-12-16T10:51:45.865Z,-1.10
2022-12-16T10:54:45.513Z,-1.10
2022-12-16T10:57:45.880Z,-1.20
2022-12-16T11:00:34.851Z,-1.30
2022-12-16T11:03:39.417Z,-1.30
2022-12-16T11:06:29.062Z,-1.30
2022-12-16T11:09:14.586Z,-1.30
2022-12-16T11:12:00.149Z,-1.30
2022-12-16T11:15:05.722Z,-1.20
2022-12-16T11:17:53.116Z,-1.10
2022-12-16T11:20:41.686Z,-1.20
2022-12-16T11:23:32.441Z,-1.20
2022-12-16T11:26:30.427Z,-1.00
2022-12-16T11:29:29.610Z,-1.10
2022-12-16T11:32:35.613Z,-1.00
2022-12-16T11:35:23.404Z,-0.90
2022-12-16T11:38:12.187Z,-0.80
2022-12-16T11:40:59.132Z,-0.80
2022-12-16T11:43:47.646Z,-0.80
2022-12-16T11:46:42.935Z,-0.80
2022-12-16T11:49:35.984Z,-0.90
2022-12-16T11:52:39.722Z,-1.10
2022-12-16T11:56:10.865Z,-1.00
2022-12-16T11:59:01.142Z,-1.00
2022-12-16T12:01:50.830Z,-1.00
2022-12-16T12:04:37.247Z,-1.00
2022-12-16T12:07:53.607Z,-1.00
2022-12-16T12:11:08.260Z,-0.90
2022-12-16T12:14:04.963Z,-0.80
2022-12-16T12:17:00.916Z,-0.70
2022-12-16T12:19:57.966Z,-0.60
2022-12-16T12:22:52.505Z,-0.70
2022-12-16T12:25:51.573Z,-0.70
2022-12-16T12:28:54.265Z,-0.60
2022-12-16T12:31:52.798Z,-0.60
2022-12-16T12:34:47.592Z,-0.40
2022-12-16T12:37:40.553Z,-0.50
2022-12-16T12:40:43.491Z,-0.60
2022-12-16T12:43:43.446Z,-0.70
2022-12-16T12:46:39.722Z,-0.80
2022-12-16T12:49:33.291Z,-0.90
2022-12-16T12:52:26.460Z,-0.80
2022-12-16T12:55:16.312Z,-0.80
2022-12-16T12:58:04.365Z,-0.90
2022-12-16T13:00:55.901Z,-0.80
2022-12-16T13:03:51.668Z,-0.80
2022-12-16T13:06:38.500Z,-0.70
2022-12-16T13:09:42.091Z,-0.80
2022-12-16T13:12:46.363Z,-0.70
2022-12-16T13:15:52.426Z,-0.70
2022-12-16T13:18:47.399Z,-0.60
2022-12-16T13:22:01.836Z,-0.80
2022-12-16T13:25:05.389Z,-0.80
2022-12-16T13:28:09.132Z,-0.80
2022-12-16T13:30:54.786Z,-0.70
2022-12-16T13:33:50.221Z,-0.70
2022-12-16T13:36:37.585Z,-0.90
2022-12-16T13:39:43.839Z,-0.80
2022-12-16T13:43:05.857Z,-1.00
2022-12-16T13:45:56.803Z,-1.10
2022-12-16T13:48:57.036Z,-1.10
2022-12-16T13:52:25.413Z,-1.20
2022-12-16T13:55:24.344Z,-1.30
2022-12-16T13:58:19.821Z,-1.30
2022-12-16T14:01:16.786Z,-1.30
2022-12-16T14:04:07.774Z,-1.30
2022-12-16T14:06:55.451Z,-1.40
2022-12-16T14:09:56.642Z,-1.40
2022-12-16T14:13:03.156Z,-1.30
2022-12-16T14:15:54.049Z,-1.40
2022-12-16T14:18:50.194Z,-1.40
2022-12-16T14:21:44.245Z,-1.60
2022-12-16T14:24:36.626Z,-1.60
2022-12-16T14:27:30.967Z,-1.60
2022-12-16T14:30:16.226Z,-1.60
2022-12-16T14:33:01.759Z,-1.60
2022-12-16T14:35:47.334Z,-1.70
2022-12-16T14:38:46.590Z,-1.70
2022-12-16T14:41:35.166Z,-1.80
2022-12-16T14:44:24.130Z,-1.80
2022-12-16T14:47:10.565Z,-1.90
2022-12-16T14:50:08.625Z,-1.90
2022-12-16T14:52:54.493Z,-1.90
2022-12-16T14:55:47.161Z,-1.90
2022-12-16T14:58:36.594Z,-2.00
2022-12-16T15:01:34.780Z,-2.00
2022-12-16T15:04:27.592Z,-2.00
2022-12-16T15:07:14.659Z,-1.90
2022-12-16T15:10:03.957Z,-1.90
2022-12-16T15:12:54.328Z,-1.90
2022-12-16T15:15:51.077Z,-2.00
2022-12-16T15:18:39.865Z,-2.00
2022-12-16T15:21:26.566Z,-2.00
2022-12-16T15:24:16.315Z,-2.00
2022-12-16T15:27:02.093Z,-1.90
2022-12-16T15:29:53.122Z,-2.10
2022-12-16T15:32:48.479Z,-2.00
2022-12-16T15:35:46.983Z,-2.10
2022-12-16T15:38:41.071Z,-2.10
2022-12-16T15:41:41.117Z,-2.10
2022-12-16T15:44:36.728Z,-2.10
2022-12-16T15:47:25.025Z,-2.10
2022-12-16T15:50:10.705Z,-2.10
2022-12-16T15:52:58.822Z,-2.10
2022-12-16T15:55:50.398Z,-2.10
2022-12-16T15:58:47.853Z,-2.10
2022-12-16T16:01:36.026Z,-2.10
2022-12-16T16:04:34.522Z,-2.20
2022-12-16T16:07:20.102Z,-2.10
2022-12-16T16:10:06.200Z,-2.10
2022-12-16T16:12:51.981Z,-2.20
2022-12-16T16:15:37.369Z,-2.20
2022-12-16T16:18:28.795Z,-2.20
2022-12-16T16:21:15.534Z,-2.30
2022-12-16T16:24:01.048Z,-2.30
2022-12-16T16:26:46.968Z,-2.30
2022-12-16T16:29:32.433Z,-2.30
2022-12-16T16:32:18.205Z,-2.30
2022-12-16T16:35:03.671Z,-2.30
2022-12-16T16:37:50.757Z,-2.30
2022-12-16T16:40:45.577Z,-2.30
2022-12-16T16:43:32.167Z,-2.30
2022-12-16T16:46:17.609Z,-2.40
2022-12-16T16:49:03.806Z,-2.30
2022-12-16T16:51:49.285Z,-2.30
2022-12-16T16:54:36.443Z,-2.30
2022-12-16T16:57:22.373Z,-2.40
2022-12-16T17:00:07.821Z,-2.40
2022-12-16T17:02:53.451Z,-2.40
2022-12-16T17:05:39.659Z,-2.40
2022-12-16T17:08:24.925Z,-2.40
2022-12-16T17:11:14.203Z,-2.40
2022-12-16T17:13:59.800Z,-2.40
2022-12-16T17:16:45.716Z,-2.40
2022-12-16T17:19:31.341Z,-2.40
2022-12-16T17:22:25.294Z,-2.30
2022-12-16T17:25:10.774Z,-2.30
2022-12-16T17:28:02.099Z,-2.30
2022-12-16T17:30:48.116Z,-2.20
2022-12-16T17:33:35.064Z,-2.30
2022-12-16T17:36:27.207Z,-2.30
2022-12-16T17:39:16.763Z,-2.30
2022-12-16T17:42:06.017Z,-2.20
2022-12-16T17:44:53.116Z,-2.30
2022-12-16T17:47:38.735Z,-2.30
2022-12-16T17:50:30.748Z,-2.30
2022-12-16T17:53:17.737Z,-2.30
2022-12-16T17:56:03.124Z,-2.20
2022-12-16T17:58:50.651Z,-2.30
2022-12-16T18:01:38.686Z,-2.20
2022-12-16T18:04:39.003Z,-2.20
2022-12-16T18:07:24.303Z,-2.20
2022-12-16T18:10:10.309Z,-2.20
2022-12-16T18:12:56.770Z,-2.20
2022-12-16T18:15:42.482Z,-2.20
2022-12-16T18:18:31.038Z,-2.20
2022-12-16T18:21:26.410Z,-2.10
2022-12-16T18:24:14.398Z,-2.10
2022-12-16T18:27:00.206Z,-2.10
2022-12-16T18:29:45.931Z,-2.10
2022-12-16T18:32:35.047Z,-2.10
2022-12-16T18:35:22.852Z,-2.10
2022-12-16T18:38:12.137Z,-2.10
2022-12-16T18:41:00.350Z,-2.10
2022-12-16T18:43:45.865Z,-2.10
2022-12-16T18:46:31.682Z,-2.10
2022-12-16T18:49:17.259Z,-2.10
2022-12-16T18:52:04.365Z,-2.00
2022-12-16T18:54:49.512Z,-2.00
2022-12-16T18:57:39.655Z,-2.00
2022-12-16T19:00:51.140Z,-2.00
2022-12-16T19:03:45.103Z,-2.10
2022-12-16T19:06:30.675Z,-2.00
2022-12-16T19:09:18.247Z,-2.00
2022-12-16T19:12:03.854Z,-2.00
2022-12-16T19:14:49.508Z,-2.10
2022-12-16T19:17:34.808Z,-2.00
2022-12-16T19:20:20.907Z,-2.00
2022-12-16T19:23:06.486Z,-2.10
2022-12-16T19:25:53.143Z,-2.00
2022-12-16T19:28:39.239Z,-2.00
2022-12-16T19:31:29.502Z,-2.10
2022-12-16T19:34:32.679Z,-2.10
2022-12-16T19:37:18.184Z,-2.00
2022-12-16T19:40:03.517Z,-2.00
2022-12-16T19:42:50.607Z,-2.20
2022-12-16T19:45:37.327Z,-2.10
2022-12-16T19:48:24.255Z,-2.10
2022-12-16T19:51:15.857Z,-2.10
2022-12-16T19:54:01.666Z,-2.10
2022-12-16T19:56:49.689Z,-2.10
2022-12-16T19:59:36.342Z,-2.10
2022-12-16T20:02:22.095Z,-2.10
2022-12-16T20:05:08.394Z,-2.10
2022-12-16T20:11:00.184Z,-2.10
2022-12-16T20:14:00.499Z,-2.10
2022-12-16T20:16:48.069Z,-2.10
2022-12-16T20:19:33.648Z,-2.10
2022-12-16T20:22:19.212Z,-2.00
2022-12-16T20:25:04.547Z,-2.10
2022-12-16T20:27:50.255Z,-2.10
2022-12-16T20:30:36.448Z,-2.20
2022-12-16T20:33:23.594Z,-2.10
2022-12-16T20:36:16.094Z,-2.10
2022-12-16T20:39:01.922Z,-2.10
2022-12-16T20:41:47.431Z,-2.10
2022-12-16T20:44:33.472Z,-2.10
2022-12-16T20:47:18.755Z,-2.10
2022-12-16T20:50:06.590Z,-2.10
2022-12-16T20:52:51.964Z,-2.10
2022-12-16T20:55:37.600Z,-2.10
2022-12-16T20:58:23.134Z,-2.20
2022-12-16T21:01:10.810Z,-2.20
2022-12-16T21:03:56.495Z,-2.20
2022-12-16T21:06:42.985Z,-2.20
2022-12-16T21:09:28.500Z,-2.20
2022-12-16T21:12:17.596Z,-2.20
2022-12-16T21:15:03.658Z,-2.20
2022-12-16T21:17:48.924Z,-2.20
2022-12-16T21:20:31.086Z,-2.30
2022-12-16T21:23:23.376Z,-2.20
2022-12-16T21:26:09.437Z,-2.30
2022-12-16T21:28:56.096Z,-2.30
2022-12-16T21:31:42.102Z,-2.30
2022-12-16T21:34:28.108Z,-2.30
2022-12-16T21:37:13.377Z,-2.30
2022-12-16T21:40:00.110Z,-2.30
2022-12-16T21:42:45.651Z,-2.40
2022-12-16T21:45:32.072Z,-2.40
2022-12-16T21:48:17.630Z,-2.40
2022-12-16T21:51:09.884Z,-2.40
2022-12-16T21:53:55.592Z,-2.40
2022-12-16T21:56:44.032Z,-2.40
2022-12-16T21:59:29.612Z,-2.40
2022-12-16T22:02:15.260Z,-2.40
2022-12-16T22:05:00.797Z,-2.40
2022-12-16T22:07:46.405Z,-2.40
2022-12-16T22:10:32.041Z,-2.50
2022-12-16T22:13:19.257Z,-2.50
2022-12-16T22:16:14.078Z,-2.40
2022-12-16T22:19:02.878Z,-2.50
2022-12-16T22:21:57.247Z,-2.50
2022-12-16T22:24:42.912Z,-2.50
2022-12-16T22:27:28.361Z,-2.50
2022-12-16T22:30:15.415Z,-2.40
2022-12-16T22:33:01.026Z,-2.50
2022-12-16T22:35:49.476Z,-2.50
2022-12-16T22:36:20.687Z,-2.10
2022-12-16T22:38:34.778Z,-2.50
2022-12-16T22:41:21.088Z,-2.40
2022-12-16T22:44:06.628Z,-2.50
2022-12-16T22:46:53.491Z,-2.50
2022-12-16T22:49:41.609Z,-2.40
2022-12-16T22:52:29.649Z,-2.40
2022-12-16T22:55:15.081Z,-2.40
2022-12-16T22:58:00.728Z,-2.50
2022-12-16T23:00:59.067Z,-2.50
2022-12-16T23:03:47.178Z,-2.60
2022-12-16T23:06:33.062Z,-2.60
2022-12-16T23:09:18.685Z,-2.60
2022-12-16T23:12:03.901Z,-2.70
2022-12-16T23:14:49.608Z,-2.60
2022-12-16T23:17:35.197Z,-2.70
2022-12-16T23:20:23.347Z,-2.70
2022-12-16T23:23:08.743Z,-2.60
2022-12-16T23:25:55.549Z,-2.60
2022-12-16T23:28:42.448Z,-2.70
2022-12-16T23:31:28.522Z,-2.60
2022-12-16T23:34:14.059Z,-2.60
2022-12-16T23:37:01.232Z,-2.60
2022-12-16T23:39:46.506Z,-2.60
2022-12-16T23:42:32.116Z,-2.60
2022-12-16T23:45:17.339Z,-2.60
2022-12-16T23:48:03.330Z,-2.60
2022-12-16T23:50:48.865Z,-2.70
2022-12-16T23:53:35.705Z,-2.70
2022-12-16T23:56:21.517Z,-2.70
2022-12-16T23:59:08.735Z,-2.70
